Time;durP1;ratioP1;P1;durP2;ratioP2;P2;SDS_P1;SDS_P2;PMS_P1;PMS_P2;Temp;Humidity;BMP_temperature;BMP_pressure;BME280_temperature;BME280_humidity;BME280_pressure;Samples;Min_cycle;Max_cycle;Signal;HPM_P1;HPM_P2
2021/07/30 00:00:19;;;;;;;9.05;3.85;;;27.70;53.60;;;;;;6243805;28;20037;-74
2021/07/30 00:03:20;;;;;;;7.25;3.92;;;27.60;54.00;;;;;;6239181;28;20103;-74
2021/07/30 00:06:21;;;;;;;14.38;4.47;;;27.50;54.10;;;;;;6223307;28;20037;-75
2021/07/30 00:09:23;;;;;;;5.95;3.95;;;27.50;54.50;;;;;;6206654;28;20042;-74
2021/07/30 00:12:24;;;;;;;7.95;4.85;;;27.40;54.80;;;;;;6240411;28;20096;-75
2021/07/30 00:15:25;;;;;;;10.40;4.22;;;27.30;55.10;;;;;;6232753;28;20065;-78
2021/07/30 00:18:26;;;;;;;6.32;3.75;;;27.30;55.40;;;;;;6205979;28;20053;-75
2021/07/30 00:21:27;;;;;;;8.88;4.28;;;27.20;55.60;;;;;;6238370;28;20052;-76
2021/07/30 00:24:29;;;;;;;7.43;3.97;;;27.10;55.80;;;;;;6245204;28;20034;-75
2021/07/30 00:27:30;;;;;;;6.75;3.83;;;27.10;56.00;;;;;;6224710;28;20025;-76
2021/07/30 00:30:31;;;;;;;6.70;4.40;;;27.00;56.10;;;;;;6238644;28;20034;-75
2021/07/30 00:33:32;;;;;;;6.30;3.78;;;27.00;56.40;;;;;;6223098;28;20406;-76
2021/07/30 00:36:33;;;;;;;12.38;4.00;;;27.00;56.70;;;;;;6219812;28;20084;-75
2021/07/30 00:39:34;;;;;;;10.15;4.13;;;26.90;56.80;;;;;;6237753;28;20048;-76
2021/07/30 00:42:36;;;;;;;6.05;3.60;;;26.90;56.90;;;;;;6222834;28;20034;-76
2021/07/30 00:45:37;;;;;;;8.85;4.07;;;26.80;56.90;;;;;;6223145;28;20120;-75
2021/07/30 00:48:39;;;;;;;8.45;4.20;;;26.80;57.00;;;;;;6223723;28;20077;-75
2021/07/30 00:51:41;;;;;;;9.93;4.18;;;26.70;57.20;;;;;;6223875;28;20104;-76
2021/07/30 00:54:42;;;;;;;12.32;4.45;;;26.70;57.40;;;;;;6224115;28;20115;-75
2021/07/30 00:57:44;;;;;;;11.23;4.28;;;26.70;57.50;;;;;;6223445;28;20513;-75
2021/07/30 01:00:45;;;;;;;6.85;4.25;;;26.70;57.50;;;;;;6224746;28;20037;-76
2021/07/30 01:03:46;;;;;;;8.73;3.72;;;26.70;57.70;;;;;;6206761;28;20046;-75
2021/07/30 01:06:47;;;;;;;7.80;4.03;;;26.70;57.70;;;;;;6221871;28;20033;-75
2021/07/30 01:09:48;;;;;;;7.45;3.92;;;26.80;57.60;;;;;;6224600;28;20034;-76
2021/07/30 01:12:50;;;;;;;6.53;4.10;;;26.80;57.40;;;;;;6224638;28;20053;-76
2021/07/30 01:15:51;;;;;;;9.38;4.32;;;26.80;57.30;;;;;;6224909;28;20045;-75
2021/07/30 01:18:52;;;;;;;6.32;3.90;;;26.80;57.40;;;;;;6223104;28;20034;-75
2021/07/30 01:21:54;;;;;;;6.00;4.25;;;26.80;57.60;;;;;;6223115;28;20413;-75
2021/07/30 01:24:55;;;;;;;6.28;3.83;;;26.70;57.60;;;;;;6224190;28;20455;-75
2021/07/30 01:27:56;;;;;;;7.03;4.15;;;26.70;58.30;;;;;;6239525;28;20057;-76
2021/07/30 01:31:00;;;;;;;7.75;4.32;;;26.70;57.90;;;;;;6223356;28;20096;-75
2021/07/30 01:34:01;;;;;;;6.95;4.07;;;26.60;57.90;;;;;;6222805;28;20095;-75
2021/07/30 01:37:02;;;;;;;7.85;4.22;;;26.60;57.80;;;;;;6223468;28;20408;-75
2021/07/30 01:40:06;;;;;;;13.18;4.60;;;26.60;57.80;;;;;;6239631;28;20037;-75
2021/07/30 01:43:07;;;;;;;11.23;4.68;;;26.60;57.80;;;;;;6222968;28;20466;-76
2021/07/30 01:46:08;;;;;;;7.90;3.90;;;26.60;57.80;;;;;;6239156;28;20038;-76
2021/07/30 01:49:09;;;;;;;8.55;4.78;;;26.60;57.80;;;;;;6222646;28;20037;-76
2021/07/30 01:52:10;;;;;;;8.70;4.03;;;26.50;57.80;;;;;;6222475;28;20037;-75
2021/07/30 01:55:11;;;;;;;5.72;4.05;;;26.50;57.70;;;;;;6222631;28;20347;-76
2021/07/30 01:58:14;;;;;;;6.93;4.07;;;26.60;57.90;;;;;;6222089;28;20113;-75
2021/07/30 02:01:15;;;;;;;8.73;4.28;;;26.50;57.80;;;;;;6222137;28;20042;-75
2021/07/30 02:04:18;;;;;;;13.20;4.60;;;26.50;57.90;;;;;;6221383;28;20042;-75
2021/07/30 02:07:19;;;;;;;7.78;4.28;;;26.50;58.00;;;;;;6219404;28;20053;-75
2021/07/30 02:10:20;;;;;;;7.72;4.63;;;26.40;58.20;;;;;;6222300;28;20470;-75
2021/07/30 02:16:41;;;;;;;6.55;4.65;;;26.30;58.70;;;;;;6221650;28;20053;-75
2021/07/30 02:19:42;;;;;;;7.90;4.28;;;26.30;58.90;;;;;;6204255;28;20034;-75
2021/07/30 02:22:43;;;;;;;8.13;4.13;;;26.20;58.80;;;;;;6222043;28;20478;-76
2021/07/30 02:25:44;;;;;;;7.47;4.30;;;26.20;59.00;;;;;;6237505;28;20107;-75
2021/07/30 02:28:45;;;;;;;8.95;4.65;;;26.20;59.00;;;;;;6221941;28;20038;-76
2021/07/30 02:31:50;;;;;;;5.53;3.67;;;26.20;58.90;;;;;;6220628;28;20037;-75
2021/07/30 02:34:51;;;;;;;6.80;3.92;;;26.10;58.90;;;;;;6221133;28;20037;-76
2021/07/30 02:37:52;;;;;;;11.75;4.55;;;26.20;58.90;;;;;;6237089;28;20049;-75
2021/07/30 02:40:53;;;;;;;7.40;4.00;;;26.10;58.80;;;;;;6219876;28;20458;-76
2021/07/30 02:43:56;;;;;;;8.15;4.13;;;26.10;58.60;;;;;;6220609;28;20375;-76
2021/07/30 02:46:57;;;;;;;5.75;4.00;;;26.20;58.80;;;;;;6220572;28;20053;-75
2021/07/30 02:49:59;;;;;;;7.22;3.97;;;26.20;58.70;;;;;;6220447;28;20542;-76
2021/07/30 02:53:00;;;;;;;6.15;3.67;;;26.20;58.50;;;;;;6221661;28;20461;-75
2021/07/30 02:56:01;;;;;;;7.35;3.97;;;26.30;58.60;;;;;;6204454;28;20469;-75
2021/07/30 02:59:02;;;;;;;6.07;3.90;;;26.30;58.30;;;;;;6224825;28;20116;-75
2021/07/30 03:02:03;;;;;;;7.57;4.22;;;26.40;58.10;;;;;;6225042;28;20045;-75
2021/07/30 03:05:05;;;;;;;9.77;3.53;;;26.40;57.90;;;;;;6241225;28;20046;-75
2021/07/30 03:08:07;;;;;;;10.75;5.45;;;26.30;57.80;;;;;;6207682;28;20036;-75
2021/07/30 03:11:08;;;;;;;8.32;4.65;;;26.20;57.90;;;;;;6225159;28;20033;-75
2021/07/30 03:14:09;;;;;;;7.55;4.72;;;26.20;58.00;;;;;;6225067;28;20026;-75
2021/07/30 03:17:10;;;;;;;7.07;4.13;;;26.10;58.10;;;;;;6225010;28;20038;-75
2021/07/30 03:20:11;;;;;;;8.18;3.88;;;26.10;58.00;;;;;;6225859;28;20472;-75
2021/07/30 03:23:12;;;;;;;9.73;4.72;;;26.10;58.10;;;;;;6224584;28;20453;-74
2021/07/30 03:26:13;;;;;;;5.82;4.25;;;26.00;58.10;;;;;;6208230;28;20048;-75
2021/07/30 03:29:14;;;;;;;10.80;4.57;;;26.00;58.20;;;;;;6224546;28;20038;-74
2021/07/30 03:32:15;;;;;;;7.72;3.72;;;26.00;58.30;;;;;;6208366;28;20053;-74
2021/07/30 03:35:16;;;;;;;8.25;4.38;;;25.90;58.40;;;;;;6224922;28;20104;-75
2021/07/30 03:38:17;;;;;;;11.02;4.82;;;25.90;58.40;;;;;;6225477;28;20046;-75
2021/07/30 03:41:18;;;;;;;8.40;4.45;;;25.90;58.40;;;;;;6240964;28;20037;-74
2021/07/30 03:44:19;;;;;;;8.98;4.80;;;25.90;58.40;;;;;;6225034;28;20042;-75
2021/07/30 03:47:20;;;;;;;12.98;4.57;;;25.90;58.40;;;;;;6201122;28;20104;-74
2021/07/30 03:50:22;;;;;;;9.93;4.88;;;25.90;58.40;;;;;;6223501;28;20029;-74
2021/07/30 03:53:23;;;;;;;10.07;4.70;;;25.90;58.40;;;;;;6224459;28;20465;-74
2021/07/30 03:56:24;;;;;;;7.28;4.78;;;25.90;58.40;;;;;;6223919;28;20037;-74
2021/07/30 03:59:25;;;;;;;13.57;4.55;;;25.90;58.40;;;;;;6207201;28;20038;-74
2021/07/30 04:02:26;;;;;;;8.15;4.43;;;25.90;58.50;;;;;;6223559;28;20036;-74
2021/07/30 04:05:27;;;;;;;9.40;4.82;;;26.00;58.50;;;;;;6223437;28;20100;-74
2021/07/30 04:08:28;;;;;;;7.38;4.57;;;26.00;58.60;;;;;;6207319;28;20041;-74
2021/07/30 04:11:29;;;;;;;7.68;4.32;;;25.90;58.70;;;;;;6239770;28;20065;-74
2021/07/30 04:14:30;;;;;;;11.43;4.85;;;25.90;58.90;;;;;;6221892;28;20454;-74
2021/07/30 04:17:31;;;;;;;8.75;4.72;;;25.80;59.00;;;;;;6223597;28;20042;-74
2021/07/30 04:20:32;;;;;;;9.98;4.90;;;25.80;59.20;;;;;;6224581;28;20041;-74
2021/07/30 04:23:34;;;;;;;8.65;4.55;;;25.80;59.30;;;;;;6223191;28;20038;-74
2021/07/30 04:26:35;;;;;;;7.93;4.75;;;25.80;59.40;;;;;;6224214;28;20033;-74
2021/07/30 04:29:41;;;;;;;9.38;4.95;;;25.80;59.60;;;;;;6223298;28;20041;-74
2021/07/30 04:32:42;;;;;;;8.95;4.80;;;25.80;59.90;;;;;;6222781;28;20068;-75
2021/07/30 04:35:43;;;;;;;7.15;4.75;;;25.80;60.00;;;;;;6224747;28;20076;-74
2021/07/30 04:38:44;;;;;;;12.65;4.47;;;25.80;60.20;;;;;;6228202;28;20046;-73
2021/07/30 04:41:45;;;;;;;8.90;4.97;;;25.80;60.40;;;;;;6238744;28;20049;-74
2021/07/30 04:44:46;;;;;;;8.55;4.90;;;25.80;60.70;;;;;;6232736;28;20038;-74
2021/07/30 04:47:47;;;;;;;7.28;5.03;;;25.80;60.60;;;;;;6225110;28;20037;-74
2021/07/30 04:50:48;;;;;;;11.77;6.38;;;25.90;60.40;;;;;;6222474;28;20125;-74
2021/07/30 04:53:50;;;;;;;7.65;4.38;;;25.90;60.20;;;;;;6222349;28;20179;-73
2021/07/30 04:56:51;;;;;;;8.82;4.65;;;25.80;60.20;;;;;;6223597;28;20042;-74
2021/07/30 04:59:52;;;;;;;9.60;4.78;;;25.90;60.30;;;;;;6223752;28;20068;-74
2021/07/30 05:02:53;;;;;;;8.93;5.13;;;25.90;60.10;;;;;;6206156;28;20041;-74
2021/07/30 05:05:54;;;;;;;8.20;5.07;;;25.90;60.10;;;;;;6221971;28;20112;-74
2021/07/30 05:08:57;;;;;;;8.98;4.70;;;25.90;60.00;;;;;;6194739;28;20439;-75
2021/07/30 05:11:58;;;;;;;9.15;4.13;;;25.90;59.90;;;;;;6223376;28;20080;-75
2021/07/30 05:14:59;;;;;;;8.65;4.80;;;26.00;60.00;;;;;;6222186;28;20045;-75
2021/07/30 05:18:00;;;;;;;6.82;4.90;;;25.90;59.90;;;;;;6221762;28;20366;-75
2021/07/30 05:21:06;;;;;;;11.48;4.63;;;25.90;59.90;;;;;;6221176;28;20034;-75
2021/07/30 05:24:07;;;;;;;9.07;5.00;;;25.90;59.80;;;;;;6238029;28;20049;-75
2021/07/30 05:27:08;;;;;;;10.40;5.50;;;26.00;59.80;;;;;;6221752;28;20049;-75
2021/07/30 05:30:10;;;;;;;9.43;5.03;;;26.00;59.80;;;;;;6223765;28;20092;-75
2021/07/30 05:33:11;;;;;;;9.52;5.20;;;26.00;60.30;;;;;;6224325;28;20034;-74
2021/07/30 05:36:19;;;;;;;7.35;4.78;;;26.10;59.50;;;;;;6237840;28;20125;-75
2021/07/30 05:39:20;;;;;;;7.70;4.40;;;26.00;59.30;;;;;;6223129;28;20030;-75
2021/07/30 05:42:21;;;;;;;10.13;4.63;;;26.10;59.30;;;;;;6215244;28;20106;-75
2021/07/30 05:45:23;;;;;;;7.93;4.70;;;26.10;59.20;;;;;;6221511;28;20037;-75
2021/07/30 05:48:24;;;;;;;12.82;5.22;;;26.00;59.20;;;;;;6222575;28;20044;-75
2021/07/30 05:51:25;;;;;;;10.35;4.63;;;26.00;59.20;;;;;;6237585;28;20443;-75
2021/07/30 05:54:26;;;;;;;12.00;4.85;;;26.10;59.10;;;;;;6221221;28;20034;-75
2021/07/30 05:57:27;;;;;;;8.60;4.78;;;26.10;59.10;;;;;;6220898;28;20379;-75
2021/07/30 06:00:28;;;;;;;11.70;4.80;;;26.10;59.10;;;;;;6219074;28;20034;-76
2021/07/30 06:03:29;;;;;;;9.40;5.00;;;26.20;59.00;;;;;;6201615;28;20378;-75
2021/07/30 06:06:31;;;;;;;13.25;5.03;;;26.20;58.80;;;;;;6223217;28;20088;-75
2021/07/30 06:09:32;;;;;;;6.85;4.50;;;26.30;59.20;;;;;;6218810;28;20080;-75
2021/07/30 06:12:34;;;;;;;8.52;5.15;;;26.30;58.50;;;;;;6219188;28;20471;-75
2021/07/30 06:15:35;;;;;;;13.75;4.82;;;26.30;58.40;;;;;;6214986;28;20034;-76
2021/07/30 06:18:40;;;;;;;10.32;5.28;;;26.30;58.40;;;;;;6241160;28;20100;-75
2021/07/30 06:21:41;;;;;;;9.13;5.07;;;26.30;58.10;;;;;;6225513;28;20044;-75
2021/07/30 06:24:42;;;;;;;7.47;4.72;;;26.30;57.90;;;;;;6220597;28;20030;-75
2021/07/30 06:27:43;;;;;;;11.35;5.00;;;26.40;57.80;;;;;;6221713;28;20403;-75
2021/07/30 06:30:44;;;;;;;8.48;5.07;;;26.40;57.80;;;;;;6235174;28;20038;-75
2021/07/30 06:33:45;;;;;;;8.02;4.47;;;26.40;57.80;;;;;;6224014;28;20038;-77
2021/07/30 06:36:46;;;;;;;9.88;5.20;;;26.40;57.90;;;;;;6208125;28;20046;-75
2021/07/30 06:39:47;;;;;;;7.07;4.40;;;26.30;57.80;;;;;;6224279;28;20400;-76
2021/07/30 06:42:48;;;;;;;8.80;5.25;;;26.30;57.90;;;;;;6223488;28;20190;-76
2021/07/30 06:45:49;;;;;;;8.85;5.40;;;26.30;58.00;;;;;;6224564;28;20370;-76
2021/07/30 06:48:50;;;;;;;8.75;4.75;;;26.30;58.10;;;;;;6216992;28;20463;-76
2021/07/30 06:51:51;;;;;;;8.18;5.00;;;26.40;58.30;;;;;;6221872;28;20105;-76
2021/07/30 06:54:55;;;;;;;8.85;4.75;;;26.40;58.20;;;;;;6224082;28;20030;-77
2021/07/30 06:57:56;;;;;;;11.38;4.97;;;26.40;58.00;;;;;;6217949;28;20360;-76
2021/07/30 07:00:57;;;;;;;7.72;4.90;;;26.50;57.90;;;;;;6222634;28;20033;-76
2021/07/30 07:03:59;;;;;;;8.63;4.78;;;26.40;57.60;;;;;;6224090;28;20068;-75
2021/07/30 07:07:00;;;;;;;8.57;5.13;;;26.40;57.50;;;;;;6215605;28;20034;-75
2021/07/30 07:10:01;;;;;;;8.55;5.22;;;26.50;57.70;;;;;;6224181;28;20092;-76
2021/07/30 07:13:02;;;;;;;8.05;4.93;;;26.40;58.00;;;;;;6239464;28;20474;-76
2021/07/30 07:16:04;;;;;;;9.00;4.90;;;26.30;58.10;;;;;;6223200;28;20034;-75
2021/07/30 07:19:10;;;;;;;7.97;4.85;;;26.30;58.20;;;;;;6199617;28;20046;-74
2021/07/30 07:22:12;;;;;;;8.82;4.65;;;26.30;58.40;;;;;;6222568;28;20030;-75
2021/07/30 07:25:13;;;;;;;8.32;4.57;;;26.30;58.50;;;;;;6222245;28;20034;-75
2021/07/30 07:28:14;;;;;;;9.13;4.57;;;26.40;58.40;;;;;;6223099;28;20076;-74
2021/07/30 07:31:15;;;;;;;12.50;4.90;;;26.40;57.80;;;;;;6224120;28;20046;-74
2021/07/30 07:34:16;;;;;;;10.75;4.63;;;26.60;57.60;;;;;;6224527;28;20048;-74
2021/07/30 07:37:17;;;;;;;6.32;4.20;;;26.70;57.40;;;;;;6239291;28;20053;-74
2021/07/30 07:40:17;;;;;;;9.95;4.55;;;26.80;57.10;;;;;;6224859;28;20366;-78
2021/07/30 07:43:19;;;;;;;6.70;4.25;;;26.80;56.90;;;;;;6221811;28;20082;-76
2021/07/30 07:46:20;;;;;;;8.50;4.25;;;26.90;56.80;;;;;;6223627;28;20068;-77
2021/07/30 07:49:21;;;;;;;13.05;4.78;;;26.90;56.70;;;;;;6225912;28;20037;-76
2021/07/30 07:52:22;;;;;;;9.95;4.53;;;27.00;56.60;;;;;;6203265;28;20145;-76
2021/07/30 07:55:22;;;;;;;7.88;4.18;;;27.10;56.20;;;;;;6225142;28;20038;-76
2021/07/30 07:58:23;;;;;;;7.30;3.90;;;27.00;55.40;;;;;;6225558;28;20120;-76
2021/07/30 08:01:24;;;;;;;11.10;4.40;;;27.00;55.00;;;;;;6231197;28;20042;-75
2021/07/30 08:04:25;;;;;;;8.23;3.72;;;27.10;55.20;;;;;;6225676;28;20045;-76
2021/07/30 08:07:27;;;;;;;9.70;4.55;;;27.10;55.20;;;;;;6207844;28;20079;-77
2021/07/30 08:10:30;;;;;;;5.18;3.72;;;27.20;55.00;;;;;;6225027;28;20344;-77
2021/07/30 08:13:31;;;;;;;6.35;3.88;;;27.40;54.90;;;;;;6227875;28;20049;-76
2021/07/30 08:16:32;;;;;;;10.07;4.35;;;27.50;54.70;;;;;;6214357;28;20471;-76
2021/07/30 08:19:34;;;;;;;5.90;3.83;;;27.50;54.10;;;;;;6226072;28;20045;-75
2021/07/30 08:22:35;;;;;;;8.60;3.47;;;27.50;53.80;;;;;;6234557;28;20038;-74
2021/07/30 08:25:36;;;;;;;5.00;3.60;;;27.60;53.80;;;;;;6229408;28;20043;-75
2021/07/30 08:28:37;;;;;;;7.05;3.47;;;27.60;53.50;;;;;;6235732;28;20462;-74
2021/07/30 08:31:38;;;;;;;8.50;3.60;;;27.70;53.30;;;;;;6223604;28;20046;-74
2021/07/30 08:34:40;;;;;;;7.57;3.97;;;27.90;53.10;;;;;;6224763;28;20030;-74
2021/07/30 08:37:41;;;;;;;8.68;3.42;;;27.70;53.20;;;;;;6223942;28;20386;-75
2021/07/30 08:40:42;;;;;;;5.07;3.22;;;27.80;53.00;;;;;;6223768;28;20042;-74
2021/07/30 08:43:43;;;;;;;4.90;3.25;;;28.00;52.60;;;;;;6223219;28;20092;-75
2021/07/30 08:46:45;;;;;;;10.18;3.08;;;28.30;52.50;;;;;;6221613;28;20041;-74
2021/07/30 08:49:46;;;;;;;7.07;3.75;;;28.50;51.30;;;;;;6220780;28;20026;-75
2021/07/30 08:52:53;;;;;;;4.85;3.00;;;28.70;50.70;;;;;;6221906;28;20034;-74
2021/07/30 08:55:54;;;;;;;5.78;3.20;;;28.60;49.90;;;;;;6221394;28;20026;-75
2021/07/30 08:58:55;;;;;;;4.72;2.90;;;28.70;50.00;;;;;;6222329;28;20034;-74
2021/07/30 09:01:56;;;;;;;11.77;3.50;;;28.80;49.70;;;;;;6221698;28;20367;-75
2021/07/30 09:04:58;;;;;;;5.57;3.38;;;28.90;49.40;;;;;;6222734;28;20041;-75
2021/07/30 09:08:02;;;;;;;4.03;2.45;;;29.00;49.10;;;;;;6221490;28;20034;-76
2021/07/30 09:11:03;;;;;;;3.95;2.60;;;29.10;48.60;;;;;;6222866;28;20489;-76
2021/07/30 09:14:10;;;;;;;4.90;2.65;;;29.30;48.40;;;;;;6220967;28;20057;-77
2021/07/30 09:17:11;;;;;;;5.00;2.58;;;29.30;47.80;;;;;;6221029;28;20046;-77
2021/07/30 09:20:12;;;;;;;6.50;2.95;;;29.50;47.70;;;;;;6219480;28;20045;-77
2021/07/30 09:23:18;;;;;;;8.07;4.70;;;29.60;47.40;;;;;;6220936;28;20054;-78
2021/07/30 09:26:37;;;;;;;6.75;3.38;;;29.70;46.70;;;;;;6235599;28;20128;-77
2021/07/30 09:29:39;;;;;;;3.90;2.55;;;29.70;46.20;;;;;;6218304;28;20060;-76
2021/07/30 09:32:42;;;;;;;7.95;3.20;;;29.70;46.50;;;;;;6219843;28;20061;-77
2021/07/30 09:35:56;;;;;;;5.38;2.53;;;29.70;46.40;;;;;;6218954;28;20398;-77
2021/07/30 09:39:00;;;;;;;4.82;3.00;;;29.90;46.50;;;;;;6220408;28;20030;-76
2021/07/30 09:42:07;;;;;;;4.88;3.00;;;29.70;46.50;;;;;;6220403;28;20481;-76
2021/07/30 09:45:13;;;;;;;4.25;2.88;;;29.80;46.50;;;;;;6220899;28;20120;-76
2021/07/30 09:48:14;;;;;;;4.45;2.63;;;29.90;46.30;;;;;;6218906;28;20041;-75
2021/07/30 09:51:15;;;;;;;6.10;3.00;;;30.10;46.10;;;;;;6221440;28;20052;-76
2021/07/30 09:54:17;;;;;;;12.02;2.85;;;30.30;45.90;;;;;;6221218;28;20040;-76
2021/07/30 09:57:21;;;;;;;4.60;3.15;;;30.40;45.30;;;;;;6222936;28;20438;-75
2021/07/30 10:00:22;;;;;;;8.27;4.13;;;30.60;45.30;;;;;;6201017;28;20064;-76
2021/07/30 10:03:24;;;;;;;3.30;2.50;;;30.70;45.20;;;;;;6219827;28;20117;-76
2021/07/30 10:06:27;;;;;;;4.63;2.95;;;30.90;44.80;;;;;;6221676;28;20034;-75
2021/07/30 10:09:30;;;;;;;4.35;2.78;;;31.00;44.70;;;;;;6221237;28;20045;-75
2021/07/30 10:12:37;;;;;;;13.88;2.50;;;31.00;44.30;;;;;;6221291;28;20034;-80
2021/07/30 10:15:39;;;;;;;5.07;2.63;;;31.20;44.20;;;;;;6220691;28;20497;-76
2021/07/30 10:18:42;;;;;;;11.73;5.82;;;31.20;43.90;;;;;;6220443;28;20045;-76
2021/07/30 10:21:43;;;;;;;12.48;5.82;;;31.50;43.30;;;;;;6221086;28;20046;-77
2021/07/30 10:24:50;;;;;;;9.88;4.20;;;31.70;42.80;;;;;;6221777;28;20068;-77
2021/07/30 10:27:55;;;;;;;3.88;2.58;;;31.90;42.50;;;;;;6222087;28;20026;-79
2021/07/30 10:31:05;;;;;;;4.57;2.55;;;32.20;42.30;;;;;;6218849;28;20034;-79
2021/07/30 10:34:06;;;;;;;5.07;2.47;;;32.40;41.90;;;;;;6221589;28;20034;-79
2021/07/30 10:37:34;;;;;;;5.22;2.22;;;32.50;41.40;;;;;;6239451;28;20033;-75
2021/07/30 10:40:35;;;;;;;6.38;2.47;;;32.60;41.20;;;;;;6235575;28;20038;-77
2021/07/30 10:44:01;;;;;;;3.72;2.50;;;32.70;41.00;;;;;;6235783;28;20117;-76
2021/07/30 10:47:21;;;;;;;4.00;2.33;;;32.60;41.00;;;;;;6236773;28;20121;-76
2021/07/30 10:50:44;;;;;;;5.97;2.65;;;32.60;41.20;;;;;;6221810;28;20037;-76
2021/07/30 10:54:04;;;;;;;5.85;2.72;;;32.60;41.00;;;;;;6230267;28;20030;-76
2021/07/30 10:57:05;;;;;;;3.35;2.42;;;32.80;40.80;;;;;;6232803;28;20053;-77
2021/07/30 11:00:07;;;;;;;3.53;2.47;;;32.90;40.50;;;;;;6220037;28;20041;-77
2021/07/30 11:03:08;;;;;;;4.53;2.47;;;33.10;40.40;;;;;;6216778;28;20042;-75
2021/07/30 11:06:10;;;;;;;5.78;2.65;;;33.10;40.30;;;;;;6226654;28;20033;-76
2021/07/30 11:09:16;;;;;;;8.18;3.38;;;33.10;40.30;;;;;;6219934;28;20026;-76
2021/07/30 11:12:18;;;;;;;3.60;2.75;;;32.90;40.30;;;;;;6222006;28;20038;-77
2021/07/30 11:15:19;;;;;;;4.75;3.00;;;32.80;40.80;;;;;;6220977;28;20092;-76
2021/07/30 11:18:20;;;;;;;6.00;2.75;;;32.90;41.00;;;;;;6218939;28;20076;-76
2021/07/30 11:21:26;;;;;;;4.60;3.03;;;33.10;40.60;;;;;;6207315;28;20046;-78
2021/07/30 11:24:27;;;;;;;6.60;2.80;;;33.00;40.60;;;;;;6225175;28;20042;-77
2021/07/30 11:27:28;;;;;;;8.60;2.50;;;32.80;40.80;;;;;;6224606;28;20346;-78
2021/07/30 11:30:30;;;;;;;6.35;3.22;;;32.70;40.90;;;;;;6205836;28;20061;-78
2021/07/30 11:33:32;;;;;;;8.68;3.25;;;32.60;40.90;;;;;;6222974;28;20108;-77
2021/07/30 11:36:33;;;;;;;5.90;3.25;;;32.70;40.60;;;;;;6239336;28;20399;-77
2021/07/30 11:39:44;;;;;;;5.07;3.13;;;32.80;40.50;;;;;;6224198;28;20026;-77
2021/07/30 11:42:45;;;;;;;4.30;3.03;;;32.80;40.00;;;;;;6201999;28;20034;-76
2021/07/30 11:45:46;;;;;;;4.85;2.92;;;32.80;39.80;;;;;;6238340;28;20030;-75
2021/07/30 11:48:48;;;;;;;4.85;2.60;;;32.70;39.60;;;;;;6238365;28;20125;-76
2021/07/30 11:51:49;;;;;;;9.65;3.20;;;32.60;39.40;;;;;;6223154;28;20133;-76
2021/07/30 11:54:50;;;;;;;7.60;3.05;;;32.70;39.20;;;;;;6246634;28;20358;-78
2021/07/30 11:57:53;;;;;;;3.60;2.70;;;32.80;38.80;;;;;;6230484;28;20136;-76
2021/07/30 12:01:11;;;;;;;8.52;3.75;;;32.90;38.50;;;;;;6248134;28;20467;-77
2021/07/30 12:04:15;;;;;;;9.43;2.80;;;32.90;38.10;;;;;;6253711;28;20041;-76
2021/07/30 12:07:27;;;;;;;5.15;3.22;;;33.00;37.80;;;;;;6227775;28;20390;-79
2021/07/30 12:10:29;;;;;;;4.50;3.03;;;32.90;38.30;;;;;;6232569;28;20041;-77
2021/07/30 12:13:31;;;;;;;4.68;3.25;;;32.70;39.60;;;;;;6245542;28;20041;-77
2021/07/30 12:16:34;;;;;;;7.95;3.47;;;32.60;39.70;;;;;;6227925;28;20030;-77
2021/07/30 12:19:36;;;;;;;5.50;3.33;;;32.60;40.00;;;;;;6228481;28;20030;-77
2021/07/30 12:22:38;;;;;;;5.85;3.58;;;32.70;40.30;;;;;;6240250;28;20030;-77
2021/07/30 12:25:48;;;;;;;8.68;3.55;;;32.60;40.60;;;;;;6227728;28;20030;-78
2021/07/30 12:28:50;;;;;;;6.10;3.97;;;32.60;40.90;;;;;;6224499;28;20092;-76
2021/07/30 12:32:11;;;;;;;4.03;3.13;;;32.50;41.10;;;;;;6234379;28;20081;-75
2021/07/30 12:35:12;;;;;;;5.75;3.75;;;32.50;41.20;;;;;;6229967;28;20479;-76
2021/07/30 12:38:15;;;;;;;7.30;3.38;;;32.70;41.10;;;;;;6225532;28;20087;-75
2021/07/30 12:41:21;;;;;;;5.60;3.30;;;33.10;40.50;;;;;;6228523;28;20038;-76
2021/07/30 12:44:24;;;;;;;6.75;3.60;;;33.30;40.20;;;;;;6225978;28;20038;-77
2021/07/30 12:47:25;;;;;;;6.20;3.33;;;33.80;39.80;;;;;;6213908;28;20386;-75
2021/07/30 12:50:35;;;;;;;4.72;3.53;;;34.70;38.50;;;;;;6250346;28;20124;-75
2021/07/30 12:54:00;;;;;;;5.43;3.22;;;35.10;37.40;;;;;;6241822;28;20050;-75
2021/07/30 12:57:04;;;;;;;9.10;3.70;;;35.60;36.50;;;;;;6229314;28;20038;-75
2021/07/30 13:00:08;;;;;;;4.90;3.17;;;36.30;35.70;;;;;;6219854;28;20048;-75
2021/07/30 13:03:28;;;;;;;5.43;2.97;;;37.00;34.40;;;;;;6226567;28;20040;-77
2021/07/30 13:06:32;;;;;;;5.22;3.45;;;37.30;34.20;;;;;;6221199;28;20060;-75
2021/07/30 13:09:33;;;;;;;4.32;3.00;;;37.50;33.40;;;;;;6230505;28;20370;-75
2021/07/30 13:12:35;;;;;;;4.35;3.38;;;38.00;32.70;;;;;;6224523;28;20037;-74
2021/07/30 13:15:36;;;;;;;4.22;3.20;;;38.90;31.50;;;;;;6216606;28;20092;-76
2021/07/30 13:18:38;;;;;;;4.57;3.50;;;39.50;30.10;;;;;;6237526;28;20112;-77
2021/07/30 13:21:39;;;;;;;7.85;3.35;;;40.20;29.60;;;;;;6217496;28;20350;-76
2021/07/30 13:24:40;;;;;;;5.55;3.38;;;41.20;28.60;;;;;;6222216;28;20049;-76
2021/07/30 13:27:41;;;;;;;3.53;2.80;;;42.10;27.30;;;;;;6221877;28;20044;-76
2021/07/30 13:30:42;;;;;;;7.78;3.30;;;43.10;26.60;;;;;;6221289;28;20030;-76
2021/07/30 13:33:43;;;;;;;5.43;2.97;;;44.00;25.60;;;;;;6222500;28;20052;-76
2021/07/30 13:36:44;;;;;;;5.05;2.88;;;44.60;25.00;;;;;;6222469;28;20483;-76
2021/07/30 13:39:45;;;;;;;5.57;3.35;;;44.30;25.00;;;;;;6222909;28;20474;-77
2021/07/30 13:42:46;;;;;;;7.60;3.30;;;42.80;25.70;;;;;;6221711;28;20030;-77
2021/07/30 13:45:51;;;;;;;7.82;2.78;;;41.20;27.10;;;;;;6221446;28;20554;-76
2021/07/30 13:48:52;;;;;;;4.25;3.17;;;39.80;28.60;;;;;;6221775;28;20521;-76
2021/07/30 13:51:55;;;;;;;9.68;3.80;;;38.60;29.70;;;;;;6220075;28;20470;-77
2021/07/30 13:54:56;;;;;;;4.25;2.97;;;37.80;31.00;;;;;;6220827;28;20079;-77
2021/07/30 13:57:57;;;;;;;4.80;3.20;;;37.10;32.10;;;;;;6221001;28;20073;-76
2021/07/30 14:00:59;;;;;;;5.38;3.30;;;36.50;33.10;;;;;;6221125;28;20049;-77
2021/07/30 14:04:00;;;;;;;8.35;3.17;;;36.10;33.90;;;;;;6204509;28;20060;-76
2021/07/30 14:07:05;;;;;;;5.65;3.80;;;36.10;34.40;;;;;;6204162;28;20041;-77
2021/07/30 14:10:12;;;;;;;5.53;3.67;;;36.10;35.50;;;;;;6221387;28;20355;-78
2021/07/30 14:13:13;;;;;;;5.00;3.50;;;35.70;36.10;;;;;;6214719;28;20034;-78
2021/07/30 14:16:16;;;;;;;10.02;2.72;;;35.20;36.90;;;;;;6221173;28;20402;-77
2021/07/30 14:19:17;;;;;;;9.13;3.25;;;34.70;37.60;;;;;;6235408;28;20061;-77
2021/07/30 14:22:18;;;;;;;9.40;3.20;;;34.10;38.10;;;;;;6219358;28;20053;-78
2021/07/30 14:25:20;;;;;;;13.65;3.97;;;33.60;38.90;;;;;;6220214;28;20038;-77
2021/07/30 14:28:21;;;;;;;4.03;3.17;;;33.20;39.50;;;;;;6219521;28;20033;-76
2021/07/30 14:31:22;;;;;;;5.25;3.17;;;32.90;40.10;;;;;;6236642;28;20076;-76
2021/07/30 14:34:23;;;;;;;6.07;3.55;;;32.50;40.70;;;;;;6235734;28;20034;-77
2021/07/30 14:37:25;;;;;;;6.00;4.03;;;32.30;41.40;;;;;;6220834;28;20042;-77
2021/07/30 14:40:26;;;;;;;7.35;3.58;;;32.00;42.00;;;;;;6219083;28;20395;-76
2021/07/30 14:43:28;;;;;;;13.25;3.92;;;31.60;42.30;;;;;;6234868;28;20498;-77
2021/07/30 14:46:34;;;;;;;6.05;3.78;;;31.70;42.70;;;;;;6219484;28;20048;-76
2021/07/30 14:49:42;;;;;;;6.93;3.58;;;31.70;43.00;;;;;;6216959;28;20057;-76
2021/07/30 14:52:43;;;;;;;5.07;3.60;;;31.60;43.20;;;;;;6234674;28;20057;-75
2021/07/30 14:55:44;;;;;;;10.77;3.50;;;31.50;43.20;;;;;;6248089;28;20072;-76
2021/07/30 14:58:47;;;;;;;6.18;3.45;;;31.50;43.10;;;;;;6247158;28;20042;-75
2021/07/30 15:01:48;;;;;;;4.43;3.05;;;31.30;42.70;;;;;;6227484;28;20038;-76
2021/07/30 15:04:49;;;;;;;5.60;3.47;;;31.20;42.70;;;;;;6229539;28;20034;-77
2021/07/30 15:07:50;;;;;;;9.57;3.40;;;31.20;42.60;;;;;;6231668;28;20109;-76
2021/07/30 15:10:51;;;;;;;6.90;3.65;;;31.20;43.40;;;;;;6233328;28;20103;-79
2021/07/30 15:13:53;;;;;;;7.68;3.72;;;31.10;43.10;;;;;;6227661;28;20132;-79
2021/07/30 15:16:54;;;;;;;6.95;3.75;;;31.20;43.20;;;;;;6226370;28;20042;-78
2021/07/30 15:19:55;;;;;;;5.22;3.28;;;31.20;43.20;;;;;;6221755;28;20036;-79
2021/07/30 15:22:56;;;;;;;11.38;3.72;;;31.20;43.10;;;;;;6222794;28;20030;-78
2021/07/30 15:25:58;;;;;;;5.05;3.08;;;31.10;43.30;;;;;;6223695;28;20026;-78
2021/07/30 15:29:04;;;;;;;5.80;3.85;;;31.00;43.50;;;;;;6238687;28;20034;-77
2021/07/30 15:32:05;;;;;;;5.93;3.78;;;31.00;43.70;;;;;;6250765;28;20026;-77
2021/07/30 15:35:07;;;;;;;5.90;3.80;;;31.20;43.50;;;;;;6225295;28;20419;-77
2021/07/30 15:38:16;;;;;;;6.57;3.17;;;32.30;41.80;;;;;;6222632;28;20042;-76
2021/07/30 15:41:19;;;;;;;5.82;3.05;;;33.20;39.60;;;;;;6239968;28;20038;-79
2021/07/30 15:44:20;;;;;;;6.85;3.40;;;33.10;39.50;;;;;;6191560;28;20041;-80
2021/07/30 15:47:22;;;;;;;4.75;3.00;;;32.80;39.90;;;;;;6240802;28;20072;-77
2021/07/30 15:50:22;;;;;;;9.93;3.85;;;32.60;40.40;;;;;;6227358;28;20038;-81